sensor_id;sensor_type;location;lat;lon;timestamp;temperature;humidity
30983;DHT22;17660;52.578;13.288;2023-05-10T00:00:18;15.40;64.20
30983;DHT22;17660;52.578;13.288;2023-05-10T00:02:45;15.50;64.50
30983;DHT22;17660;52.578;13.288;2023-05-10T00:05:12;15.50;64.70
30983;DHT22;17660;52.578;13.288;2023-05-10T00:07:38;15.50;64.50
30983;DHT22;17660;52.578;13.288;2023-05-10T00:10:05;15.50;64.60
30983;DHT22;17660;52.578;13.288;2023-05-10T00:12:32;15.50;64.40
30983;DHT22;17660;52.578;13.288;2023-05-10T00:14:58;15.60;64.30
30983;DHT22;17660;52.578;13.288;2023-05-10T00:17:25;15.40;64.40
30983;DHT22;17660;52.578;13.288;2023-05-10T00:19:52;15.40;64.50
30983;DHT22;17660;52.578;13.288;2023-05-10T00:22:18;15.30;65.00
30983;DHT22;17660;52.578;13.288;2023-05-10T00:24:45;15.20;65.10
30983;DHT22;17660;52.578;13.288;2023-05-10T00:27:12;15.20;65.20
30983;DHT22;17660;52.578;13.288;2023-05-10T00:29:38;15.30;65.10
30983;DHT22;17660;52.578;13.288;2023-05-10T00:32:05;15.30;65.00
30983;DHT22;17660;52.578;13.288;2023-05-10T00:34:32;15.30;65.20
30983;DHT22;17660;52.578;13.288;2023-05-10T00:36:59;15.30;65.00
30983;DHT22;17660;52.578;13.288;2023-05-10T00:39:25;15.40;64.90
30983;DHT22;17660;52.578;13.288;2023-05-10T00:41:53;15.50;64.80
30983;DHT22;17660;52.578;13.288;2023-05-10T00:44:19;15.40;64.90
30983;DHT22;17660;52.578;13.288;2023-05-10T00:46:46;15.40;64.80
30983;DHT22;17660;52.578;13.288;2023-05-10T00:49:13;15.10;65.00
30983;DHT22;17660;52.578;13.288;2023-05-10T00:51:40;15.20;65.20
30983;DHT22;17660;52.578;13.288;2023-05-10T00:54:11;15.10;65.40
30983;DHT22;17660;52.578;13.288;2023-05-10T00:56:38;15.00;66.10
30983;DHT22;17660;52.578;13.288;2023-05-10T00:59:04;15.00;65.60
30983;DHT22;17660;52.578;13.288;2023-05-10T01:01:31;14.90;65.70
30983;DHT22;17660;52.578;13.288;2023-05-10T01:03:58;14.90;65.90
30983;DHT22;17660;52.578;13.288;2023-05-10T01:06:25;15.00;65.80
30983;DHT22;17660;52.578;13.288;2023-05-10T01:08:52;14.90;66.00
30983;DHT22;17660;52.578;13.288;2023-05-10T01:11:18;14.90;66.10
30983;DHT22;17660;52.578;13.288;2023-05-10T01:13:46;14.60;66.80
30983;DHT22;17660;52.578;13.288;2023-05-10T01:16:14;14.60;66.80
30983;DHT22;17660;52.578;13.288;2023-05-10T01:18:41;14.60;66.80
30983;DHT22;17660;52.578;13.288;2023-05-10T01:23:44;14.60;67.10
30983;DHT22;17660;52.578;13.288;2023-05-10T01:26:14;14.70;66.70
30983;DHT22;17660;52.578;13.288;2023-05-10T01:33:49;14.70;66.90
30983;DHT22;17660;52.578;13.288;2023-05-10T01:36:31;14.60;67.10
30983;DHT22;17660;52.578;13.288;2023-05-10T01:39:02;14.50;67.20
30983;DHT22;17660;52.578;13.288;2023-05-10T01:41:45;14.40;67.10
30983;DHT22;17660;52.578;13.288;2023-05-10T01:44:31;14.40;67.50
30983;DHT22;17660;52.578;13.288;2023-05-10T01:47:05;14.30;67.40
30983;DHT22;17660;52.578;13.288;2023-05-10T01:49:39;14.30;67.90
30983;DHT22;17660;52.578;13.288;2023-05-10T01:52:08;14.30;67.60
30983;DHT22;17660;52.578;13.288;2023-05-10T01:54:35;14.20;68.00
30983;DHT22;17660;52.578;13.288;2023-05-10T01:57:05;14.20;67.80
30983;DHT22;17660;52.578;13.288;2023-05-10T01:59:33;14.20;68.40
30983;DHT22;17660;52.578;13.288;2023-05-10T02:02:07;14.10;68.10
30983;DHT22;17660;52.578;13.288;2023-05-10T02:04:35;14.30;68.10
30983;DHT22;17660;52.578;13.288;2023-05-10T02:07:01;14.30;68.20
30983;DHT22;17660;52.578;13.288;2023-05-10T02:09:28;14.30;67.80
30983;DHT22;17660;52.578;13.288;2023-05-10T02:11:56;14.40;68.00
30983;DHT22;17660;52.578;13.288;2023-05-10T02:14:24;14.50;68.00
30983;DHT22;17660;52.578;13.288;2023-05-10T02:16:52;14.10;68.60
30983;DHT22;17660;52.578;13.288;2023-05-10T02:19:20;14.10;68.70
30983;DHT22;17660;52.578;13.288;2023-05-10T02:21:48;14.00;68.50
30983;DHT22;17660;52.578;13.288;2023-05-10T02:24:15;14.00;68.90
30983;DHT22;17660;52.578;13.288;2023-05-10T02:26:42;13.90;69.80
30983;DHT22;17660;52.578;13.288;2023-05-10T02:29:10;13.90;69.20
30983;DHT22;17660;52.578;13.288;2023-05-10T02:31:38;14.00;69.10
30983;DHT22;17660;52.578;13.288;2023-05-10T02:34:05;13.80;69.70
30983;DHT22;17660;52.578;13.288;2023-05-10T02:36:32;13.90;69.50
30983;DHT22;17660;52.578;13.288;2023-05-10T02:38:59;13.80;69.30
30983;DHT22;17660;52.578;13.288;2023-05-10T02:41:28;13.80;69.40
30983;DHT22;17660;52.578;13.288;2023-05-10T02:43:57;13.80;69.60
30983;DHT22;17660;52.578;13.288;2023-05-10T02:46:25;13.70;69.80
30983;DHT22;17660;52.578;13.288;2023-05-10T02:48:52;13.70;69.60
30983;DHT22;17660;52.578;13.288;2023-05-10T02:51:19;13.70;69.70
30983;DHT22;17660;52.578;13.288;2023-05-10T02:53:47;13.70;69.70
30983;DHT22;17660;52.578;13.288;2023-05-10T02:56:20;13.80;69.70
30983;DHT22;17660;52.578;13.288;2023-05-10T02:58:49;13.80;69.50
30983;DHT22;17660;52.578;13.288;2023-05-10T03:01:16;13.70;69.70
30983;DHT22;17660;52.578;13.288;2023-05-10T03:03:43;13.60;69.70
30983;DHT22;17660;52.578;13.288;2023-05-10T03:06:09;13.50;70.00
30983;DHT22;17660;52.578;13.288;2023-05-10T03:08:36;13.70;70.00
30983;DHT22;17660;52.578;13.288;2023-05-10T03:11:09;13.60;70.00
30983;DHT22;17660;52.578;13.288;2023-05-10T03:13:40;13.50;69.80
30983;DHT22;17660;52.578;13.288;2023-05-10T03:16:12;13.50;70.00
30983;DHT22;17660;52.578;13.288;2023-05-10T03:18:44;13.50;70.80
30983;DHT22;17660;52.578;13.288;2023-05-10T03:23:43;13.50;70.10
30983;DHT22;17660;52.578;13.288;2023-05-10T03:26:09;13.60;70.10
30983;DHT22;17660;52.578;13.288;2023-05-10T03:28:38;13.60;69.80
30983;DHT22;17660;52.578;13.288;2023-05-10T03:31:05;13.50;70.00
30983;DHT22;17660;52.578;13.288;2023-05-10T03:33:32;13.30;70.40
30983;DHT22;17660;52.578;13.288;2023-05-10T03:35:59;13.30;70.90
30983;DHT22;17660;52.578;13.288;2023-05-10T03:38:26;13.30;70.70
30983;DHT22;17660;52.578;13.288;2023-05-10T03:40:55;13.30;70.70
30983;DHT22;17660;52.578;13.288;2023-05-10T03:43:22;13.10;71.10
30983;DHT22;17660;52.578;13.288;2023-05-10T03:45:48;13.10;71.10
30983;DHT22;17660;52.578;13.288;2023-05-10T03:48:15;13.30;71.10
30983;DHT22;17660;52.578;13.288;2023-05-10T03:50:44;13.30;71.40
30983;DHT22;17660;52.578;13.288;2023-05-10T03:53:10;13.20;71.10
30983;DHT22;17660;52.578;13.288;2023-05-10T03:55:37;13.30;71.10
30983;DHT22;17660;52.578;13.288;2023-05-10T03:58:04;13.30;71.10
30983;DHT22;17660;52.578;13.288;2023-05-10T04:00:32;13.40;70.30
30983;DHT22;17660;52.578;13.288;2023-05-10T04:02:59;13.40;70.30
30983;DHT22;17660;52.578;13.288;2023-05-10T04:05:25;13.40;70.20
30983;DHT22;17660;52.578;13.288;2023-05-10T04:07:52;13.50;70.30
30983;DHT22;17660;52.578;13.288;2023-05-10T04:10:19;13.60;70.00
30983;DHT22;17660;52.578;13.288;2023-05-10T04:12:45;13.50;70.10
30983;DHT22;17660;52.578;13.288;2023-05-10T04:15:12;13.20;70.60
30983;DHT22;17660;52.578;13.288;2023-05-10T04:17:39;13.10;71.20
30983;DHT22;17660;52.578;13.288;2023-05-10T04:20:06;13.10;70.90
30983;DHT22;17660;52.578;13.288;2023-05-10T04:22:33;13.10;71.00
30983;DHT22;17660;52.578;13.288;2023-05-10T04:25:00;13.20;70.70
30983;DHT22;17660;52.578;13.288;2023-05-10T04:27:26;13.20;71.20
30983;DHT22;17660;52.578;13.288;2023-05-10T04:29:53;13.10;70.90
30983;DHT22;17660;52.578;13.288;2023-05-10T04:32:20;13.20;71.50
30983;DHT22;17660;52.578;13.288;2023-05-10T04:34:47;13.40;70.60
30983;DHT22;17660;52.578;13.288;2023-05-10T04:37:13;13.40;70.80
30983;DHT22;17660;52.578;13.288;2023-05-10T04:39:40;13.40;70.80
30983;DHT22;17660;52.578;13.288;2023-05-10T04:42:08;13.50;70.50
30983;DHT22;17660;52.578;13.288;2023-05-10T04:44:34;13.60;70.30
30983;DHT22;17660;52.578;13.288;2023-05-10T04:47:01;13.50;70.20
30983;DHT22;17660;52.578;13.288;2023-05-10T04:49:29;13.60;70.20
30983;DHT22;17660;52.578;13.288;2023-05-10T04:51:56;13.70;70.60
30983;DHT22;17660;52.578;13.288;2023-05-10T04:54:22;13.80;69.80
30983;DHT22;17660;52.578;13.288;2023-05-10T04:56:49;13.70;69.90
30983;DHT22;17660;52.578;13.288;2023-05-10T04:59:15;13.70;70.00
30983;DHT22;17660;52.578;13.288;2023-05-10T05:01:42;13.70;70.30
30983;DHT22;17660;52.578;13.288;2023-05-10T05:04:09;13.70;70.20
30983;DHT22;17660;52.578;13.288;2023-05-10T05:06:36;13.60;71.00
30983;DHT22;17660;52.578;13.288;2023-05-10T05:09:02;13.70;70.40
30983;DHT22;17660;52.578;13.288;2023-05-10T05:11:29;13.90;70.60
30983;DHT22;17660;52.578;13.288;2023-05-10T05:13:56;13.90;70.80
30983;DHT22;17660;52.578;13.288;2023-05-10T05:16:25;13.90;70.30
30983;DHT22;17660;52.578;13.288;2023-05-10T05:18:52;13.90;70.00
30983;DHT22;17660;52.578;13.288;2023-05-10T05:21:19;14.10;69.90
30983;DHT22;17660;52.578;13.288;2023-05-10T05:23:45;14.10;69.10
30983;DHT22;17660;52.578;13.288;2023-05-10T05:26:12;14.20;69.80
30983;DHT22;17660;52.578;13.288;2023-05-10T05:28:39;14.20;69.30
30983;DHT22;17660;52.578;13.288;2023-05-10T05:31:06;14.20;69.60
30983;DHT22;17660;52.578;13.288;2023-05-10T05:33:34;14.30;70.50
30983;DHT22;17660;52.578;13.288;2023-05-10T05:36:01;14.20;69.70
30983;DHT22;17660;52.578;13.288;2023-05-10T05:38:28;14.30;70.00
30983;DHT22;17660;52.578;13.288;2023-05-10T05:40:55;14.50;69.70
30983;DHT22;17660;52.578;13.288;2023-05-10T05:43:21;14.40;69.30
30983;DHT22;17660;52.578;13.288;2023-05-10T05:45:48;14.50;69.80
30983;DHT22;17660;52.578;13.288;2023-05-10T05:48:15;14.50;69.00
30983;DHT22;17660;52.578;13.288;2023-05-10T05:50:41;14.60;69.80
30983;DHT22;17660;52.578;13.288;2023-05-10T05:53:08;14.70;69.00
30983;DHT22;17660;52.578;13.288;2023-05-10T05:55:35;14.80;68.70
30983;DHT22;17660;52.578;13.288;2023-05-10T05:58:02;14.80;69.00
30983;DHT22;17660;52.578;13.288;2023-05-10T06:00:29;14.90;69.90
30983;DHT22;17660;52.578;13.288;2023-05-10T06:02:55;14.90;69.00
30983;DHT22;17660;52.578;13.288;2023-05-10T06:05:22;15.00;68.30
30983;DHT22;17660;52.578;13.288;2023-05-10T06:07:49;15.10;67.90
30983;DHT22;17660;52.578;13.288;2023-05-10T06:10:15;15.20;68.40
30983;DHT22;17660;52.578;13.288;2023-05-10T06:12:42;15.30;68.40
30983;DHT22;17660;52.578;13.288;2023-05-10T06:15:09;15.40;67.80
30983;DHT22;17660;52.578;13.288;2023-05-10T06:17:36;15.50;68.60
30983;DHT22;17660;52.578;13.288;2023-05-10T06:20:02;15.70;67.90
30983;DHT22;17660;52.578;13.288;2023-05-10T06:22:29;15.70;67.30
30983;DHT22;17660;52.578;13.288;2023-05-10T06:24:56;15.70;67.40
30983;DHT22;17660;52.578;13.288;2023-05-10T06:27:23;15.90;68.40
30983;DHT22;17660;52.578;13.288;2023-05-10T06:29:49;15.90;67.20
30983;DHT22;17660;52.578;13.288;2023-05-10T06:32:24;16.00;67.10
30983;DHT22;17660;52.578;13.288;2023-05-10T06:34:51;16.20;67.90
30983;DHT22;17660;52.578;13.288;2023-05-10T06:37:18;16.30;66.40
30983;DHT22;17660;52.578;13.288;2023-05-10T06:39:45;16.40;66.80
30983;DHT22;17660;52.578;13.288;2023-05-10T06:42:11;16.40;67.30
30983;DHT22;17660;52.578;13.288;2023-05-10T06:44:38;16.50;67.10
30983;DHT22;17660;52.578;13.288;2023-05-10T06:47:05;16.60;66.50
30983;DHT22;17660;52.578;13.288;2023-05-10T06:49:31;16.60;65.70
30983;DHT22;17660;52.578;13.288;2023-05-10T06:51:58;16.60;66.00
30983;DHT22;17660;52.578;13.288;2023-05-10T06:54:25;16.80;66.20
30983;DHT22;17660;52.578;13.288;2023-05-10T06:56:51;16.80;65.60
30983;DHT22;17660;52.578;13.288;2023-05-10T06:59:18;16.80;65.30
30983;DHT22;17660;52.578;13.288;2023-05-10T07:01:45;16.80;65.30
30983;DHT22;17660;52.578;13.288;2023-05-10T07:04:12;16.90;67.10
30983;DHT22;17660;52.578;13.288;2023-05-10T07:06:40;16.90;66.80
30983;DHT22;17660;52.578;13.288;2023-05-10T07:09:07;17.00;65.10
30983;DHT22;17660;52.578;13.288;2023-05-10T07:11:34;17.00;65.40
30983;DHT22;17660;52.578;13.288;2023-05-10T07:14:01;17.10;65.50
30983;DHT22;17660;52.578;13.288;2023-05-10T07:16:27;17.30;66.00
30983;DHT22;17660;52.578;13.288;2023-05-10T07:18:54;17.30;65.20
30983;DHT22;17660;52.578;13.288;2023-05-10T07:21:20;17.40;65.00
30983;DHT22;17660;52.578;13.288;2023-05-10T07:23:50;17.40;65.70
30983;DHT22;17660;52.578;13.288;2023-05-10T07:26:16;17.40;64.10
30983;DHT22;17660;52.578;13.288;2023-05-10T07:28:43;17.30;65.00
30983;DHT22;17660;52.578;13.288;2023-05-10T07:31:10;17.30;65.70
30983;DHT22;17660;52.578;13.288;2023-05-10T07:33:36;17.50;66.00
30983;DHT22;17660;52.578;13.288;2023-05-10T07:36:03;17.60;65.10
30983;DHT22;17660;52.578;13.288;2023-05-10T07:38:30;17.70;63.90
30983;DHT22;17660;52.578;13.288;2023-05-10T07:40:56;17.60;64.40
30983;DHT22;17660;52.578;13.288;2023-05-10T07:43:23;17.80;65.50
30983;DHT22;17660;52.578;13.288;2023-05-10T07:45:50;17.90;64.50
30983;DHT22;17660;52.578;13.288;2023-05-10T07:48:18;18.10;65.00
30983;DHT22;17660;52.578;13.288;2023-05-10T07:50:45;18.10;64.30
30983;DHT22;17660;52.578;13.288;2023-05-10T07:53:12;18.10;64.60
30983;DHT22;17660;52.578;13.288;2023-05-10T07:55:38;18.10;64.50
30983;DHT22;17660;52.578;13.288;2023-05-10T07:58:05;18.00;64.00
30983;DHT22;17660;52.578;13.288;2023-05-10T08:00:31;18.00;66.00
30983;DHT22;17660;52.578;13.288;2023-05-10T08:02:58;18.10;64.20
30983;DHT22;17660;52.578;13.288;2023-05-10T08:05:25;18.10;64.40
30983;DHT22;17660;52.578;13.288;2023-05-10T08:07:52;18.20;64.20
30983;DHT22;17660;52.578;13.288;2023-05-10T08:10:18;18.20;63.60
30983;DHT22;17660;52.578;13.288;2023-05-10T08:12:45;18.30;63.50
30983;DHT22;17660;52.578;13.288;2023-05-10T08:15:12;18.20;63.30
30983;DHT22;17660;52.578;13.288;2023-05-10T08:17:38;18.20;63.70
30983;DHT22;17660;52.578;13.288;2023-05-10T08:20:05;18.30;63.80
30983;DHT22;17660;52.578;13.288;2023-05-10T08:22:33;18.40;65.40
30983;DHT22;17660;52.578;13.288;2023-05-10T08:25:00;18.40;64.80
30983;DHT22;17660;52.578;13.288;2023-05-10T08:27:27;18.40;64.30
30983;DHT22;17660;52.578;13.288;2023-05-10T08:29:53;18.50;63.70
30983;DHT22;17660;52.578;13.288;2023-05-10T08:32:20;18.60;64.30
30983;DHT22;17660;52.578;13.288;2023-05-10T08:34:47;18.70;63.40
30983;DHT22;17660;52.578;13.288;2023-05-10T08:37:13;18.70;63.70
30983;DHT22;17660;52.578;13.288;2023-05-10T08:39:40;18.80;63.40
30983;DHT22;17660;52.578;13.288;2023-05-10T08:42:07;18.90;62.90
30983;DHT22;17660;52.578;13.288;2023-05-10T08:44:35;19.00;63.40
30983;DHT22;17660;52.578;13.288;2023-05-10T08:47:04;19.10;64.40
30983;DHT22;17660;52.578;13.288;2023-05-10T08:49:32;19.20;62.80
30983;DHT22;17660;52.578;13.288;2023-05-10T08:51:59;19.30;63.60
30983;DHT22;17660;52.578;13.288;2023-05-10T08:54:29;19.30;63.60
30983;DHT22;17660;52.578;13.288;2023-05-10T08:56:57;19.30;63.40
30983;DHT22;17660;52.578;13.288;2023-05-10T08:59:24;19.40;62.10
30983;DHT22;17660;52.578;13.288;2023-05-10T09:01:51;19.40;63.10
30983;DHT22;17660;52.578;13.288;2023-05-10T09:04:20;19.60;62.60
30983;DHT22;17660;52.578;13.288;2023-05-10T09:06:47;19.70;62.10
30983;DHT22;17660;52.578;13.288;2023-05-10T09:09:14;19.80;61.60
30983;DHT22;17660;52.578;13.288;2023-05-10T09:11:41;20.00;61.80
30983;DHT22;17660;52.578;13.288;2023-05-10T09:14:08;20.20;61.60
30983;DHT22;17660;52.578;13.288;2023-05-10T09:16:35;20.10;60.20
30983;DHT22;17660;52.578;13.288;2023-05-10T09:19:02;20.00;61.40
30983;DHT22;17660;52.578;13.288;2023-05-10T09:21:29;20.20;61.50
30983;DHT22;17660;52.578;13.288;2023-05-10T09:23:57;20.40;60.50
30983;DHT22;17660;52.578;13.288;2023-05-10T09:26:28;20.50;61.30
30983;DHT22;17660;52.578;13.288;2023-05-10T09:28:57;20.70;60.10
30983;DHT22;17660;52.578;13.288;2023-05-10T09:31:24;20.80;60.50
30983;DHT22;17660;52.578;13.288;2023-05-10T09:33:53;20.90;59.00
30983;DHT22;17660;52.578;13.288;2023-05-10T09:36:20;21.00;61.10
30983;DHT22;17660;52.578;13.288;2023-05-10T09:38:50;21.10;59.00
30983;DHT22;17660;52.578;13.288;2023-05-10T09:41:18;21.10;59.40
30983;DHT22;17660;52.578;13.288;2023-05-10T09:43:45;21.30;59.40
30983;DHT22;17660;52.578;13.288;2023-05-10T09:46:12;21.50;58.50
30983;DHT22;17660;52.578;13.288;2023-05-10T09:48:42;21.90;59.00
30983;DHT22;17660;52.578;13.288;2023-05-10T09:51:09;22.00;57.60
30983;DHT22;17660;52.578;13.288;2023-05-10T09:53:36;22.50;58.80
30983;DHT22;17660;52.578;13.288;2023-05-10T09:56:03;23.10;57.20
30983;DHT22;17660;52.578;13.288;2023-05-10T09:58:30;24.00;55.40
30983;DHT22;17660;52.578;13.288;2023-05-10T10:00:56;24.90;54.00
30983;DHT22;17660;52.578;13.288;2023-05-10T10:03:23;25.90;52.80
30983;DHT22;17660;52.578;13.288;2023-05-10T10:05:50;26.30;52.40
30983;DHT22;17660;52.578;13.288;2023-05-10T10:08:17;27.30;51.20
30983;DHT22;17660;52.578;13.288;2023-05-10T10:10:44;27.80;50.20
30983;DHT22;17660;52.578;13.288;2023-05-10T10:13:12;28.00;50.20
30983;DHT22;17660;52.578;13.288;2023-05-10T10:15:39;28.10;49.20
30983;DHT22;17660;52.578;13.288;2023-05-10T10:18:06;28.20;50.90
30983;DHT22;17660;52.578;13.288;2023-05-10T10:20:33;28.00;49.30
30983;DHT22;17660;52.578;13.288;2023-05-10T10:22:59;28.20;49.30
30983;DHT22;17660;52.578;13.288;2023-05-10T10:25:26;28.80;49.70
30983;DHT22;17660;52.578;13.288;2023-05-10T10:35:53;28.80;49.10
30983;DHT22;17660;52.578;13.288;2023-05-10T10:38:20;29.00;48.40
30983;DHT22;17660;52.578;13.288;2023-05-10T10:40:48;29.20;48.50
30983;DHT22;17660;52.578;13.288;2023-05-10T10:43:24;28.40;49.50
30983;DHT22;17660;52.578;13.288;2023-05-10T10:48:36;28.60;48.70
30983;DHT22;17660;52.578;13.288;2023-05-10T10:51:03;28.70;48.50
30983;DHT22;17660;52.578;13.288;2023-05-10T10:53:30;28.60;50.10
30983;DHT22;17660;52.578;13.288;2023-05-10T10:58:51;28.10;48.40
30983;DHT22;17660;52.578;13.288;2023-05-10T11:01:18;28.10;48.10
30983;DHT22;17660;52.578;13.288;2023-05-10T11:03:56;28.20;48.20
30983;DHT22;17660;52.578;13.288;2023-05-10T11:06:32;28.10;48.50
30983;DHT22;17660;52.578;13.288;2023-05-10T11:09:06;27.40;48.70
30983;DHT22;17660;52.578;13.288;2023-05-10T11:11:34;27.30;49.80
30983;DHT22;17660;52.578;13.288;2023-05-10T11:14:04;27.60;50.20
30983;DHT22;17660;52.578;13.288;2023-05-10T11:16:40;27.70;48.30
30983;DHT22;17660;52.578;13.288;2023-05-10T11:19:08;27.50;48.80
30983;DHT22;17660;52.578;13.288;2023-05-10T11:21:44;27.40;49.40
30983;DHT22;17660;52.578;13.288;2023-05-10T11:24:15;27.10;50.40
30983;DHT22;17660;52.578;13.288;2023-05-10T11:26:42;27.00;51.70
30983;DHT22;17660;52.578;13.288;2023-05-10T11:29:09;26.80;51.20
30983;DHT22;17660;52.578;13.288;2023-05-10T11:31:43;26.60;49.60
30983;DHT22;17660;52.578;13.288;2023-05-10T11:34:10;26.50;48.60
30983;DHT22;17660;52.578;13.288;2023-05-10T11:36:37;26.80;51.30
30983;DHT22;17660;52.578;13.288;2023-05-10T11:39:04;26.80;49.80
30983;DHT22;17660;52.578;13.288;2023-05-10T11:41:31;26.80;48.90
30983;DHT22;17660;52.578;13.288;2023-05-10T11:43:58;26.40;49.80
30983;DHT22;17660;52.578;13.288;2023-05-10T11:46:26;26.60;50.30
30983;DHT22;17660;52.578;13.288;2023-05-10T11:48:58;26.40;51.50
30983;DHT22;17660;52.578;13.288;2023-05-10T11:51:27;26.50;50.20
30983;DHT22;17660;52.578;13.288;2023-05-10T11:53:55;26.50;49.20
30983;DHT22;17660;52.578;13.288;2023-05-10T11:56:21;26.30;51.20
30983;DHT22;17660;52.578;13.288;2023-05-10T11:58:56;26.30;49.10
30983;DHT22;17660;52.578;13.288;2023-05-10T12:01:24;26.10;49.00
30983;DHT22;17660;52.578;13.288;2023-05-10T12:03:51;25.70;51.20
30983;DHT22;17660;52.578;13.288;2023-05-10T12:06:19;25.70;52.20
30983;DHT22;17660;52.578;13.288;2023-05-10T12:08:47;26.00;49.90
30983;DHT22;17660;52.578;13.288;2023-05-10T12:11:14;26.00;49.90
30983;DHT22;17660;52.578;13.288;2023-05-10T12:13:44;26.30;49.60
30983;DHT22;17660;52.578;13.288;2023-05-10T12:16:23;26.30;49.80
30983;DHT22;17660;52.578;13.288;2023-05-10T12:18:50;26.40;50.00
30983;DHT22;17660;52.578;13.288;2023-05-10T12:21:20;26.10;49.20
30983;DHT22;17660;52.578;13.288;2023-05-10T12:23:50;25.80;49.00
30983;DHT22;17660;52.578;13.288;2023-05-10T12:26:17;25.50;49.50
30983;DHT22;17660;52.578;13.288;2023-05-10T12:28:44;25.70;50.90
30983;DHT22;17660;52.578;13.288;2023-05-10T12:31:11;25.80;49.60
30983;DHT22;17660;52.578;13.288;2023-05-10T12:33:38;25.90;50.00
30983;DHT22;17660;52.578;13.288;2023-05-10T12:36:05;26.40;50.70
30983;DHT22;17660;52.578;13.288;2023-05-10T12:38:33;26.10;48.80
30983;DHT22;17660;52.578;13.288;2023-05-10T12:41:01;26.10;49.90
30983;DHT22;17660;52.578;13.288;2023-05-10T12:43:28;26.30;49.70
30983;DHT22;17660;52.578;13.288;2023-05-10T12:45:55;26.30;51.50
30983;DHT22;17660;52.578;13.288;2023-05-10T12:48:22;26.40;49.90
30983;DHT22;17660;52.578;13.288;2023-05-10T12:50:49;26.30;51.80
30983;DHT22;17660;52.578;13.288;2023-05-10T12:53:16;26.50;49.60
30983;DHT22;17660;52.578;13.288;2023-05-10T12:55:43;26.40;49.90
30983;DHT22;17660;52.578;13.288;2023-05-10T12:58:10;26.20;49.80
30983;DHT22;17660;52.578;13.288;2023-05-10T13:00:43;26.10;48.80
30983;DHT22;17660;52.578;13.288;2023-05-10T13:03:10;26.40;49.90
30983;DHT22;17660;52.578;13.288;2023-05-10T13:05:37;26.00;49.50
30983;DHT22;17660;52.578;13.288;2023-05-10T13:08:04;26.00;51.60
30983;DHT22;17660;52.578;13.288;2023-05-10T13:10:31;25.90;49.20
30983;DHT22;17660;52.578;13.288;2023-05-10T13:12:58;26.00;50.20
30983;DHT22;17660;52.578;13.288;2023-05-10T13:15:25;26.20;51.20
30983;DHT22;17660;52.578;13.288;2023-05-10T13:17:52;26.20;49.50
30983;DHT22;17660;52.578;13.288;2023-05-10T13:20:19;26.10;50.20
30983;DHT22;17660;52.578;13.288;2023-05-10T13:22:46;25.90;50.70
30983;DHT22;17660;52.578;13.288;2023-05-10T13:25:13;26.10;49.50
30983;DHT22;17660;52.578;13.288;2023-05-10T13:27:39;26.10;49.30
30983;DHT22;17660;52.578;13.288;2023-05-10T13:30:07;25.90;51.50
30983;DHT22;17660;52.578;13.288;2023-05-10T13:32:34;26.30;49.90
30983;DHT22;17660;52.578;13.288;2023-05-10T13:35:01;26.40;49.90
30983;DHT22;17660;52.578;13.288;2023-05-10T13:37:30;26.60;49.10
30983;DHT22;17660;52.578;13.288;2023-05-10T13:39:56;26.80;50.00
30983;DHT22;17660;52.578;13.288;2023-05-10T13:42:23;26.90;48.70
30983;DHT22;17660;52.578;13.288;2023-05-10T13:44:50;26.90;49.40
30983;DHT22;17660;52.578;13.288;2023-05-10T13:47:16;27.10;50.90
30983;DHT22;17660;52.578;13.288;2023-05-10T13:49:43;27.10;48.80
30983;DHT22;17660;52.578;13.288;2023-05-10T13:52:10;26.90;51.30
30983;DHT22;17660;52.578;13.288;2023-05-10T13:54:36;27.10;50.00
30983;DHT22;17660;52.578;13.288;2023-05-10T13:57:04;26.70;47.60
30983;DHT22;17660;52.578;13.288;2023-05-10T13:59:31;26.50;48.40
30983;DHT22;17660;52.578;13.288;2023-05-10T14:01:58;26.20;48.70
30983;DHT22;17660;52.578;13.288;2023-05-10T14:04:25;26.10;48.00
30983;DHT22;17660;52.578;13.288;2023-05-10T14:06:51;26.10;48.90
30983;DHT22;17660;52.578;13.288;2023-05-10T14:09:19;26.10;48.60
30983;DHT22;17660;52.578;13.288;2023-05-10T14:11:46;26.30;47.80
30983;DHT22;17660;52.578;13.288;2023-05-10T14:14:12;26.30;48.90
30983;DHT22;17660;52.578;13.288;2023-05-10T14:16:43;26.40;49.20
30983;DHT22;17660;52.578;13.288;2023-05-10T14:19:10;26.50;50.20
30983;DHT22;17660;52.578;13.288;2023-05-10T14:21:37;26.40;49.80
30983;DHT22;17660;52.578;13.288;2023-05-10T14:24:04;26.00;48.50
30983;DHT22;17660;52.578;13.288;2023-05-10T14:26:31;25.90;51.30
30983;DHT22;17660;52.578;13.288;2023-05-10T14:28:58;26.00;48.90
30983;DHT22;17660;52.578;13.288;2023-05-10T14:31:25;26.10;49.40
30983;DHT22;17660;52.578;13.288;2023-05-10T14:33:52;26.10;50.30
30983;DHT22;17660;52.578;13.288;2023-05-10T14:36:19;25.90;49.30
30983;DHT22;17660;52.578;13.288;2023-05-10T14:38:45;25.80;49.70
30983;DHT22;17660;52.578;13.288;2023-05-10T14:41:12;25.70;48.20
30983;DHT22;17660;52.578;13.288;2023-05-10T14:43:41;25.50;48.20
30983;DHT22;17660;52.578;13.288;2023-05-10T14:46:08;25.20;49.00
30983;DHT22;17660;52.578;13.288;2023-05-10T14:48:35;25.20;48.30
30983;DHT22;17660;52.578;13.288;2023-05-10T14:51:01;25.90;46.90
30983;DHT22;17660;52.578;13.288;2023-05-10T14:53:28;26.70;47.70
30983;DHT22;17660;52.578;13.288;2023-05-10T14:55:55;27.30;45.50
30983;DHT22;17660;52.578;13.288;2023-05-10T14:58:21;27.50;45.80
30983;DHT22;17660;52.578;13.288;2023-05-10T15:00:48;27.60;45.60
30983;DHT22;17660;52.578;13.288;2023-05-10T15:03:15;27.00;47.00
30983;DHT22;17660;52.578;13.288;2023-05-10T15:05:43;26.50;47.70
30983;DHT22;17660;52.578;13.288;2023-05-10T15:08:10;26.10;47.50
30983;DHT22;17660;52.578;13.288;2023-05-10T15:10:39;25.90;48.20
30983;DHT22;17660;52.578;13.288;2023-05-10T15:13:06;25.90;49.40
30983;DHT22;17660;52.578;13.288;2023-05-10T15:15:32;25.60;49.80
30983;DHT22;17660;52.578;13.288;2023-05-10T15:17:59;25.50;49.00
30983;DHT22;17660;52.578;13.288;2023-05-10T15:20:26;25.30;48.80
30983;DHT22;17660;52.578;13.288;2023-05-10T15:22:52;25.40;49.30
30983;DHT22;17660;52.578;13.288;2023-05-10T15:25:19;25.40;48.40
30983;DHT22;17660;52.578;13.288;2023-05-10T15:27:46;25.60;49.60
30983;DHT22;17660;52.578;13.288;2023-05-10T15:30:13;25.40;50.90
30983;DHT22;17660;52.578;13.288;2023-05-10T15:32:39;25.40;50.00
30983;DHT22;17660;52.578;13.288;2023-05-10T15:35:09;25.90;50.00
30983;DHT22;17660;52.578;13.288;2023-05-10T15:37:37;26.30;49.20
30983;DHT22;17660;52.578;13.288;2023-05-10T15:40:03;26.90;48.30